Downstream station:
SHEF ID: INCM7 Indian Creek near Lanagan, MO
STATION TYPE:
PRECIP STAGE RIV-FLOW BAT-LOAD
in ft cfs volt
Ccp-Rev Ccp-Rev Ccp-Rev Ccp-Rev
(US/Central)
03/31 00:00 0.00 2.22 284 12.60
03/31 01:00 0.00 2.24 290 12.54
03/31 02:00 0.00 2.24 290 12.54
03/31 03:00 0.00 2.25 294 12.48
03/31 04:00 0.00 2.25 294 12.48
03/31 05:00 0.00 2.24 290 12.48
03/31 06:00 0.00 2.24 290 12.48
03/31 07:00 0.00 2.25 294 12.48
03/31 08:00 0.00 2.26 297 12.48
03/31 09:00 0.00 2.27 301 12.71
03/31 10:00 0.00 2.26 297 13.07
03/31 11:00 0.00 2.27 301 13.71
03/31 12:00 0.00 2.29 308 13.59
03/31 13:00 0.00 2.28 304 13.65
03/31 14:00 0.00 2.31 315 13.59
03/31 15:00 0.00 2.29 308 14.12
03/31 16:00 0.00 2.28 304 13.59
03/31 17:00 0.00 2.30 311 13.36
03/31 18:00 0.00 2.28 304 13.36
03/31 19:00 0.00 2.29 308 13.30
03/31 20:00 0.00 2.31 315 13.24
03/31 21:00 0.00 2.32 318 12.95
03/31 22:00 0.00 2.31 315 12.83
03/31 23:00 0.00 2.31 315 12.71